Time;durP1;ratioP1;P1;durP2;ratioP2;P2;SDS_P1;SDS_P2;PMS_P1;PMS_P2;Temp;Humidity;BMP_temperature;BMP_pressure;BME280_temperature;BME280_humidity;BME280_pressure;Samples;Min_cycle;Max_cycle;Signal;HPM_P1;HPM_P2
2022/01/13 00:01:57;;;;;;;13.97;9.90;;;2.50;86.30;;;;;;4924791;29;21012;-50
2022/01/13 00:04:24;;;;;;;14.40;10.57;;;2.50;86.40;;;;;;4922590;29;20510;-51
2022/01/13 00:06:51;;;;;;;14.60;10.60;;;2.40;86.30;;;;;;4926838;29;20468;-51
2022/01/13 00:09:18;;;;;;;13.90;9.67;;;2.50;86.40;;;;;;4923495;29;20560;-51
2022/01/13 00:11:47;;;;;;;16.90;10.43;;;2.50;86.20;;;;;;4925150;29;20470;-51
2022/01/13 00:17:31;;;;;;;14.70;10.23;;;2.40;86.10;;;;;;4924629;29;20496;-51
2022/01/13 00:22:21;;;;;;;;;;;;;;;;;;;;;
2022/01/13 00:24:49;;;;;;;13.80;10.63;;;2.40;86.10;;;;;;4923220;29;20500;-51
2022/01/13 00:27:16;;;;;;;14.60;10.37;;;2.40;85.90;;;;;;4910369;29;20477;-51
2022/01/13 00:29:45;;;;;;;12.73;9.27;;;2.40;86.00;;;;;;4924942;29;20470;-51
2022/01/13 00:32:15;;;;;;;16.63;11.80;;;2.40;86.00;;;;;;4923709;29;21011;-51
2022/01/13 00:34:43;;;;;;;15.30;11.00;;;2.30;86.00;;;;;;4914014;29;20587;-52
2022/01/13 00:37:11;;;;;;;15.70;10.50;;;2.40;86.10;;;;;;4923569;29;20881;-51
2022/01/13 00:39:37;;;;;;;14.90;9.63;;;2.40;86.00;;;;;;4926454;29;20463;-52
2022/01/13 00:42:04;;;;;;;14.70;10.23;;;2.40;86.20;;;;;;4922848;29;20830;-52
2022/01/13 00:44:36;;;;;;;16.67;11.10;;;2.40;86.10;;;;;;4913181;29;20607;-51
2022/01/13 00:47:07;;;;;;;15.73;10.83;;;2.40;86.10;;;;;;4923636;29;20469;-52
2022/01/13 00:49:35;;;;;;;14.37;10.13;;;2.40;86.30;;;;;;4925067;29;20555;-52
2022/01/13 00:52:04;;;;;;;16.53;11.87;;;2.40;86.30;;;;;;4926581;29;20465;-51
2022/01/13 00:54:33;;;;;;;16.43;10.90;;;2.30;86.60;;;;;;4924686;29;20569;-51
2022/01/13 00:57:00;;;;;;;15.30;10.03;;;2.40;86.80;;;;;;4923165;29;20476;-51
2022/01/13 00:59:27;;;;;;;14.40;10.20;;;2.40;86.70;;;;;;4926762;29;21397;-51
2022/01/13 01:01:55;;;;;;;16.20;10.70;;;2.40;86.80;;;;;;4924803;29;20469;-51
2022/01/13 01:04:24;;;;;;;12.87;9.07;;;2.40;86.90;;;;;;4923416;29;20978;-53
2022/01/13 01:06:51;;;;;;;13.47;10.13;;;2.50;86.90;;;;;;4920070;29;20460;-51
2022/01/13 01:09:29;;;;;;;20.27;8.90;;;2.50;86.80;;;;;;4923866;29;20461;-51
2022/01/13 01:11:56;;;;;;;14.10;10.70;;;2.50;86.80;;;;;;4920093;29;21022;-52
2022/01/13 01:14:24;;;;;;;12.67;10.20;;;2.50;86.80;;;;;;4920908;29;20464;-51
2022/01/13 01:16:51;;;;;;;15.90;10.50;;;2.50;86.90;;;;;;4910791;29;20488;-51
2022/01/13 01:19:26;;;;;;;15.17;11.27;;;2.50;87.00;;;;;;4921505;29;20531;-51
2022/01/13 01:24:58;;;;;;;15.77;10.80;;;2.60;87.00;;;;;;4920678;29;21025;-52
2022/01/13 01:27:31;;;;;;;14.20;9.97;;;2.60;87.10;;;;;;4923796;29;20844;-52
2022/01/13 01:30:08;;;;;;;16.10;11.40;;;2.60;87.20;;;;;;4924905;29;20824;-52
2022/01/13 01:32:37;;;;;;;22.20;10.17;;;2.70;87.20;;;;;;4908984;29;20972;-52
2022/01/13 01:35:13;;;;;;;17.00;10.47;;;2.70;87.10;;;;;;4922024;29;20459;-52
2022/01/13 01:37:41;;;;;;;15.03;11.23;;;2.70;87.20;;;;;;4919908;29;20463;-52
2022/01/13 01:40:09;;;;;;;15.60;10.00;;;2.70;87.40;;;;;;4912294;29;20543;-51
2022/01/13 01:42:36;;;;;;;14.23;9.27;;;2.70;87.50;;;;;;4924280;29;20456;-52
2022/01/13 01:45:05;;;;;;;19.47;12.53;;;2.70;87.60;;;;;;4913858;29;20463;-52
2022/01/13 01:47:33;;;;;;;17.27;11.07;;;2.70;87.70;;;;;;4922468;29;20551;-52
2022/01/13 01:50:18;;;;;;;15.70;10.20;;;2.70;87.70;;;;;;4908924;29;20468;-52
2022/01/13 01:52:47;;;;;;;16.23;9.63;;;2.80;87.70;;;;;;4922401;29;20500;-52
2022/01/13 01:55:15;;;;;;;16.07;9.87;;;2.80;87.60;;;;;;4933738;28;20492;-52
2022/01/13 01:57:43;;;;;;;16.80;11.40;;;2.90;87.60;;;;;;4912039;29;20454;-52
2022/01/13 02:00:14;;;;;;;15.33;10.77;;;2.80;87.70;;;;;;4923479;29;20837;-52
2022/01/13 02:02:43;;;;;;;16.90;10.30;;;2.90;87.80;;;;;;4920752;29;20811;-51
2022/01/13 02:05:10;;;;;;;13.90;10.27;;;2.90;87.80;;;;;;4912326;29;20943;-50
2022/01/13 02:07:38;;;;;;;16.33;10.20;;;2.90;87.80;;;;;;4923464;29;20499;-51
2022/01/13 02:10:06;;;;;;;14.67;9.00;;;2.90;88.00;;;;;;4918292;29;20479;-51
2022/01/13 02:12:37;;;;;;;17.83;10.43;;;2.90;87.90;;;;;;4922994;29;20833;-51
2022/01/13 02:17:42;;;;;;;14.90;10.00;;;3.00;87.20;;;;;;4919870;29;20828;-51
2022/01/13 02:20:14;;;;;;;17.60;12.17;;;3.00;87.30;;;;;;4909538;29;20456;-51
2022/01/13 02:22:44;;;;;;;15.27;10.00;;;3.10;87.30;;;;;;4902708;29;20498;-51
2022/01/13 02:25:15;;;;;;;18.43;11.90;;;3.00;87.30;;;;;;4920309;29;20460;-51
2022/01/13 02:27:43;;;;;;;16.80;10.27;;;3.00;87.40;;;;;;4920587;29;20942;-51
2022/01/13 02:30:11;;;;;;;19.50;12.10;;;3.00;87.50;;;;;;4922076;28;20888;-51
2022/01/13 02:32:37;;;;;;;15.20;11.20;;;3.10;87.30;;;;;;4923658;29;20550;-51
2022/01/13 02:35:07;;;;;;;22.00;11.63;;;3.10;86.80;;;;;;4925796;29;20457;-51
2022/01/13 02:37:34;;;;;;;15.87;10.83;;;3.10;86.80;;;;;;4925233;29;20470;-52
2022/01/13 02:40:00;;;;;;;15.07;11.23;;;3.10;86.90;;;;;;4921277;29;20850;-51
2022/01/13 02:42:28;;;;;;;20.53;12.60;;;3.10;87.00;;;;;;4928715;29;20548;-52
2022/01/13 02:45:02;;;;;;;19.37;11.80;;;3.10;86.90;;;;;;4930839;29;20460;-52
2022/01/13 02:47:59;;;;;;;16.40;12.10;;;3.10;87.10;;;;;;4925371;29;20519;-51
2022/01/13 02:50:24;;;;;;;19.53;11.13;;;3.10;87.00;;;;;;4928843;29;20463;-51
2022/01/13 02:52:51;;;;;;;18.40;11.90;;;3.10;87.20;;;;;;4923364;29;20471;-52
2022/01/13 02:55:17;;;;;;;21.60;11.00;;;3.20;87.20;;;;;;4926172;29;20466;-52
2022/01/13 02:57:45;;;;;;;14.13;11.47;;;3.20;87.00;;;;;;4925392;29;20461;-51
2022/01/13 03:00:15;;;;;;;18.40;11.67;;;3.20;86.80;;;;;;4927346;29;20447;-50
2022/01/13 03:02:46;;;;;;;22.77;12.60;;;3.20;87.00;;;;;;4912448;29;20469;-50
2022/01/13 03:05:14;;;;;;;19.00;10.87;;;3.20;87.00;;;;;;4926304;29;20543;-52
2022/01/13 03:07:41;;;;;;;20.83;11.90;;;3.30;87.00;;;;;;4926148;29;20455;-52
2022/01/13 03:10:10;;;;;;;22.63;12.60;;;3.30;86.80;;;;;;4925645;29;20963;-51
2022/01/13 03:12:40;;;;;;;18.20;12.43;;;3.30;86.60;;;;;;4926407;29;20467;-52
2022/01/13 03:15:07;;;;;;;21.07;13.40;;;3.30;86.70;;;;;;4926968;29;20839;-51
2022/01/13 03:17:34;;;;;;;19.13;12.90;;;3.30;86.80;;;;;;4925796;29;20495;-52
2022/01/13 03:20:01;;;;;;;21.97;14.20;;;3.40;86.60;;;;;;4927936;29;20456;-52
2022/01/13 03:22:27;;;;;;;19.77;12.83;;;3.40;86.30;;;;;;4922642;29;20796;-52
2022/01/13 03:24:54;;;;;;;16.77;12.33;;;3.40;86.50;;;;;;4921346;29;20470;-51
2022/01/13 03:27:23;;;;;;;18.37;12.63;;;3.40;86.60;;;;;;4924374;29;20993;-52
2022/01/13 03:29:50;;;;;;;15.87;12.60;;;3.40;86.70;;;;;;4925516;29;20472;-52
2022/01/13 03:32:17;;;;;;;18.97;12.77;;;3.40;86.50;;;;;;4925650;29;20467;-52
2022/01/13 03:34:44;;;;;;;18.33;11.67;;;3.40;86.50;;;;;;4925840;29;20563;-52
2022/01/13 03:37:12;;;;;;;19.10;11.93;;;3.30;86.70;;;;;;4911865;29;20500;-52
2022/01/13 03:39:39;;;;;;;17.67;12.83;;;3.40;86.50;;;;;;4924999;29;20454;-52
2022/01/13 03:42:06;;;;;;;21.50;12.40;;;3.30;86.50;;;;;;4925136;29;20576;-47
2022/01/13 03:44:33;;;;;;;21.93;13.70;;;3.40;86.40;;;;;;4920658;29;20456;-47
2022/01/13 03:47:02;;;;;;;19.97;12.40;;;3.40;86.00;;;;;;4921915;29;21015;-47
2022/01/13 03:49:30;;;;;;;17.90;12.93;;;3.40;86.00;;;;;;4914771;29;20462;-47
2022/01/13 03:52:00;;;;;;;21.40;13.27;;;3.40;86.30;;;;;;4926690;29;20545;-49
2022/01/13 03:54:34;;;;;;;20.60;13.60;;;3.40;86.10;;;;;;4924078;29;20472;-47
2022/01/13 03:57:22;;;;;;;18.97;12.10;;;3.40;86.10;;;;;;4923448;29;20548;-47
2022/01/13 04:00:37;;;;;;;23.47;13.63;;;3.40;86.20;;;;;;4922864;29;20503;-47
2022/01/13 04:03:04;;;;;;;18.20;12.53;;;3.40;86.00;;;;;;4925071;29;21269;-48
2022/01/13 04:05:31;;;;;;;18.40;12.00;;;3.40;86.00;;;;;;4911076;29;20457;-48
2022/01/13 04:07:58;;;;;;;23.60;13.53;;;3.40;86.10;;;;;;4923726;29;20821;-48
2022/01/13 04:10:46;;;;;;;21.67;14.40;;;3.30;86.30;;;;;;4922255;29;20503;-47
2022/01/13 04:13:33;;;;;;;17.80;12.00;;;3.40;86.30;;;;;;4922728;29;20455;-47
2022/01/13 04:15:59;;;;;;;17.90;11.33;;;3.40;86.10;;;;;;4923114;29;21042;-47
2022/01/13 04:18:26;;;;;;;19.10;13.57;;;3.40;86.20;;;;;;4927163;29;20776;-48
2022/01/13 04:20:53;;;;;;;18.77;12.00;;;3.40;86.30;;;;;;4919011;29;20835;-47
2022/01/13 04:23:19;;;;;;;18.17;11.57;;;3.30;86.30;;;;;;4921825;29;20495;-48
2022/01/13 04:25:46;;;;;;;21.43;13.07;;;3.40;86.30;;;;;;4920399;29;20451;-48
2022/01/13 04:28:14;;;;;;;20.03;11.90;;;3.40;86.20;;;;;;4920695;29;20547;-48
2022/01/13 04:33:08;;;;;;;16.17;11.10;;;3.40;86.10;;;;;;4922467;29;20503;-48
2022/01/13 04:35:34;;;;;;;15.10;10.03;;;3.40;86.00;;;;;;4919277;29;20468;-48
2022/01/13 04:38:01;;;;;;;14.43;10.30;;;3.40;85.60;;;;;;4910110;29;20452;-47
2022/01/13 04:40:28;;;;;;;13.77;10.97;;;3.40;85.50;;;;;;4921952;29;20460;-48
2022/01/13 04:42:56;;;;;;;14.40;10.00;;;3.40;85.70;;;;;;4922146;29;20471;-48
2022/01/13 04:45:25;;;;;;;14.93;10.17;;;3.40;85.60;;;;;;4921624;29;20665;-48
2022/01/13 04:47:54;;;;;;;12.27;10.00;;;3.40;85.80;;;;;;4925386;29;20472;-48
2022/01/13 04:50:22;;;;;;;14.23;11.03;;;3.40;85.50;;;;;;4923526;29;20469;-48
2022/01/13 04:52:49;;;;;;;12.97;10.20;;;3.40;85.50;;;;;;4909772;29;20459;-47
2022/01/13 04:55:22;;;;;;;11.93;10.10;;;3.40;85.80;;;;;;4923672;29;21001;-48
2022/01/13 04:57:49;;;;;;;15.33;10.47;;;3.50;85.50;;;;;;4922693;29;22086;-47
2022/01/13 05:00:20;;;;;;;13.47;9.37;;;3.50;84.90;;;;;;4920860;29;20503;-48
2022/01/13 05:02:47;;;;;;;16.50;11.80;;;3.40;85.00;;;;;;4923162;29;21249;-47
2022/01/13 05:05:14;;;;;;;13.37;9.47;;;3.40;85.50;;;;;;4921674;29;20462;-47
2022/01/13 05:07:41;;;;;;;17.90;11.63;;;3.40;85.70;;;;;;4919896;29;20460;-47
2022/01/13 05:10:09;;;;;;;16.23;11.03;;;3.40;85.20;;;;;;4915924;29;20490;-47
2022/01/13 05:12:43;;;;;;;15.37;10.67;;;3.40;85.50;;;;;;4926779;29;20456;-48
2022/01/13 05:15:22;;;;;;;14.57;10.50;;;3.40;85.60;;;;;;4908436;29;21486;-48
2022/01/13 05:20:28;;;;;;;14.13;9.50;;;3.40;85.50;;;;;;4921977;29;20487;-48
2022/01/13 05:22:55;;;;;;;17.00;10.20;;;3.40;85.50;;;;;;4921009;29;20483;-48
2022/01/13 05:25:22;;;;;;;14.60;10.53;;;3.40;85.30;;;;;;4922047;29;20487;-48
2022/01/13 05:27:48;;;;;;;13.63;11.33;;;3.40;85.30;;;;;;4924793;29;20472;-48
2022/01/13 05:30:17;;;;;;;17.70;10.17;;;3.40;85.50;;;;;;4918742;29;20480;-48
2022/01/13 05:32:46;;;;;;;16.90;11.10;;;3.30;85.50;;;;;;4922945;29;20833;-48
2022/01/13 05:35:15;;;;;;;14.03;10.47;;;3.30;85.60;;;;;;4922664;29;20459;-48
2022/01/13 05:37:44;;;;;;;13.37;8.80;;;3.40;85.70;;;;;;4928800;29;20488;-47
2022/01/13 05:40:12;;;;;;;15.90;9.70;;;3.40;85.20;;;;;;4920818;29;20466;-48
2022/01/13 05:42:40;;;;;;;14.53;10.03;;;3.40;84.80;;;;;;4922121;29;20467;-49
2022/01/13 05:45:14;;;;;;;12.80;9.60;;;3.40;84.90;;;;;;4923747;29;20448;-48
2022/01/13 05:47:46;;;;;;;14.00;10.20;;;3.40;84.90;;;;;;4920726;29;20473;-47
2022/01/13 05:50:15;;;;;;;14.67;10.67;;;3.30;85.20;;;;;;4912238;29;20467;-47
2022/01/13 05:52:42;;;;;;;12.17;9.23;;;3.30;85.30;;;;;;4921775;29;20467;-48
2022/01/13 05:55:10;;;;;;;18.00;11.40;;;3.30;85.20;;;;;;4922501;29;20869;-47
2022/01/13 05:57:37;;;;;;;15.30;11.30;;;3.30;85.20;;;;;;4910029;29;20507;-48
2022/01/13 06:00:12;;;;;;;16.93;10.60;;;3.30;85.30;;;;;;4912068;29;20456;-48
2022/01/13 06:02:39;;;;;;;14.33;11.23;;;3.20;85.30;;;;;;4922624;29;20547;-48
2022/01/13 06:05:08;;;;;;;17.20;12.00;;;3.20;85.30;;;;;;4920801;29;20492;-48
2022/01/13 06:07:36;;;;;;;11.60;10.30;;;3.30;85.30;;;;;;4914075;29;20472;-48
2022/01/13 06:10:05;;;;;;;33.80;21.10;;;3.30;85.30;;;;;;4924732;29;21029;-48
2022/01/13 06:12:37;;;;;;;41.87;25.37;;;3.40;85.00;;;;;;4923162;29;20511;-48
2022/01/13 06:15:11;;;;;;;18.70;12.77;;;3.40;84.90;;;;;;4923505;29;20962;-48
2022/01/13 06:17:41;;;;;;;23.40;13.20;;;3.40;84.70;;;;;;4924769;29;20606;-48
2022/01/13 06:20:11;;;;;;;17.67;12.33;;;3.40;84.40;;;;;;4922819;29;20467;-47
2022/01/13 06:22:39;;;;;;;17.90;13.47;;;3.40;83.90;;;;;;4925152;29;20488;-48
2022/01/13 06:25:08;;;;;;;15.50;11.17;;;3.30;84.50;;;;;;4927516;29;20487;-48
2022/01/13 06:27:35;;;;;;;18.17;12.23;;;3.30;84.80;;;;;;4927839;29;20465;-48
2022/01/13 06:30:07;;;;;;;14.20;11.67;;;3.30;84.90;;;;;;4926646;29;20471;-48
2022/01/13 06:32:36;;;;;;;18.60;11.80;;;3.30;85.00;;;;;;4925388;29;20460;-48
2022/01/13 06:35:03;;;;;;;17.90;10.90;;;3.20;85.10;;;;;;4925507;29;20464;-48
2022/01/13 06:37:30;;;;;;;17.10;10.43;;;3.20;85.00;;;;;;4926637;29;20499;-48
2022/01/13 06:40:02;;;;;;;19.97;12.30;;;3.20;85.00;;;;;;4925226;29;20457;-48
2022/01/13 06:42:29;;;;;;;18.57;11.80;;;3.20;84.70;;;;;;4925467;29;20464;-48
2022/01/13 06:44:56;;;;;;;16.50;11.03;;;3.20;84.80;;;;;;4913998;29;20455;-47
2022/01/13 06:47:23;;;;;;;18.37;12.10;;;3.20;84.90;;;;;;4923332;29;20483;-48
2022/01/13 06:49:50;;;;;;;19.13;13.43;;;3.20;85.00;;;;;;4926697;29;20459;-47
2022/01/13 06:52:17;;;;;;;19.33;13.60;;;3.20;84.60;;;;;;4924598;29;20483;-48
2022/01/13 06:54:52;;;;;;;22.27;13.67;;;3.20;84.80;;;;;;4910994;29;20479;-48
2022/01/13 06:57:19;;;;;;;18.07;13.30;;;3.20;84.60;;;;;;4927852;29;20503;-49
2022/01/13 06:59:47;;;;;;;18.03;12.83;;;3.30;84.00;;;;;;4925760;29;20460;-48
2022/01/13 07:02:14;;;;;;;20.33;12.40;;;3.30;83.70;;;;;;4923697;29;20621;-48
2022/01/13 07:04:43;;;;;;;13.63;11.43;;;3.20;83.90;;;;;;4925651;29;20949;-48
2022/01/13 07:07:10;;;;;;;19.83;13.00;;;3.10;84.40;;;;;;4927927;29;20452;-48
2022/01/13 07:09:37;;;;;;;16.53;11.77;;;3.10;84.80;;;;;;4924618;29;20976;-48
2022/01/13 07:12:04;;;;;;;14.57;11.60;;;3.00;85.10;;;;;;4921644;29;20468;-48
2022/01/13 07:14:31;;;;;;;20.20;11.57;;;3.00;85.30;;;;;;4923079;29;20503;-48
2022/01/13 07:16:58;;;;;;;20.53;13.80;;;3.10;85.30;;;;;;4927078;29;20566;-48
2022/01/13 07:19:25;;;;;;;18.47;11.13;;;3.10;85.20;;;;;;4921134;29;20501;-48
2022/01/13 07:21:52;;;;;;;15.40;11.47;;;3.20;85.10;;;;;;4925675;29;20459;-48
2022/01/13 07:24:19;;;;;;;18.10;13.60;;;3.20;85.00;;;;;;4910202;29;20500;-48
2022/01/13 07:26:45;;;;;;;22.57;14.37;;;3.10;84.80;;;;;;4910590;29;20626;-48
2022/01/13 07:29:12;;;;;;;30.00;14.77;;;3.10;85.10;;;;;;4924672;29;20460;-48
2022/01/13 07:31:39;;;;;;;23.40;13.60;;;3.10;85.00;;;;;;4911570;29;20480;-48
2022/01/13 07:34:06;;;;;;;21.07;13.60;;;3.10;85.20;;;;;;4925956;29;20538;-48
2022/01/13 07:36:34;;;;;;;20.50;14.00;;;3.10;85.20;;;;;;4924585;29;20452;-48
2022/01/13 07:39:03;;;;;;;22.73;14.90;;;3.10;85.30;;;;;;4921769;29;20457;-48
2022/01/13 07:41:30;;;;;;;22.30;14.37;;;3.20;85.30;;;;;;4923682;29;20540;-48
2022/01/13 07:43:57;;;;;;;19.90;14.87;;;3.20;85.40;;;;;;4927309;29;20462;-48
2022/01/13 07:46:25;;;;;;;20.37;13.57;;;3.30;85.10;;;;;;4926021;29;20456;-48
2022/01/13 07:48:52;;;;;;;20.10;12.93;;;3.30;84.80;;;;;;4923742;29;21005;-48
2022/01/13 07:51:19;;;;;;;21.20;14.67;;;3.20;84.90;;;;;;4922004;29;20448;-48
2022/01/13 07:53:46;;;;;;;24.80;14.63;;;3.20;84.50;;;;;;4925751;29;20530;-48
2022/01/13 07:56:13;;;;;;;23.00;13.93;;;3.20;84.70;;;;;;4921110;29;20467;-48
2022/01/13 07:58:44;;;;;;;22.43;14.43;;;3.20;84.50;;;;;;4907099;29;21058;-49
2022/01/13 08:01:10;;;;;;;24.97;16.00;;;3.20;84.50;;;;;;4921420;29;20815;-48
2022/01/13 08:03:37;;;;;;;23.23;15.30;;;3.10;84.80;;;;;;4923813;29;20456;-48
2022/01/13 08:06:05;;;;;;;23.03;14.47;;;3.10;84.90;;;;;;4922930;29;20539;-48
2022/01/13 08:08:35;;;;;;;25.40;14.80;;;3.20;84.70;;;;;;4921966;29;20470;-47
2022/01/13 08:11:07;;;;;;;20.70;13.50;;;3.20;84.80;;;;;;4925404;29;20472;-48
2022/01/13 08:13:35;;;;;;;24.30;15.90;;;3.10;84.70;;;;;;4925626;29;20472;-47
2022/01/13 08:16:07;;;;;;;19.50;14.47;;;3.10;84.70;;;;;;4919362;29;20478;-49
2022/01/13 08:21:24;;;;;;;23.27;14.40;;;3.10;84.70;;;;;;4922938;29;20457;-48
2022/01/13 08:23:51;;;;;;;22.00;15.93;;;3.10;84.70;;;;;;4911919;29;20560;-47
2022/01/13 08:26:18;;;;;;;25.00;14.60;;;3.20;84.40;;;;;;4921559;29;20471;-48
2022/01/13 08:28:46;;;;;;;21.70;13.80;;;3.10;84.30;;;;;;4925813;29;20464;-49
2022/01/13 08:31:12;;;;;;;18.13;12.00;;;3.10;84.50;;;;;;4921004;29;20457;-48
2022/01/13 08:33:39;;;;;;;22.63;11.50;;;3.10;84.30;;;;;;4925489;29;20468;-47
2022/01/13 08:36:06;;;;;;;20.20;12.37;;;3.10;84.10;;;;;;4926371;29;20463;-47
2022/01/13 08:38:34;;;;;;;16.00;11.20;;;3.00;84.20;;;;;;4924383;29;20920;-47
2022/01/13 08:41:02;;;;;;;18.40;10.80;;;3.10;84.20;;;;;;4927531;29;20478;-47
2022/01/13 08:43:29;;;;;;;17.73;11.47;;;3.10;83.90;;;;;;4913023;29;20973;-48
2022/01/13 08:45:57;;;;;;;17.53;11.20;;;3.00;83.80;;;;;;4923772;29;20468;-47
2022/01/13 08:48:26;;;;;;;17.00;10.17;;;3.00;84.10;;;;;;4922176;29;20523;-48
2022/01/13 08:50:53;;;;;;;21.53;11.60;;;3.00;84.70;;;;;;4922579;29;20457;-48
2022/01/13 08:53:20;;;;;;;18.20;10.40;;;2.90;84.90;;;;;;4924147;29;20472;-47
2022/01/13 08:55:47;;;;;;;16.10;8.97;;;2.90;85.10;;;;;;4923404;29;20488;-48
2022/01/13 08:58:14;;;;;;;15.60;10.50;;;2.90;85.10;;;;;;4912786;29;20491;-48
2022/01/13 09:00:42;;;;;;;19.60;11.40;;;2.90;85.00;;;;;;4922832;29;20455;-48
2022/01/13 09:03:10;;;;;;;18.33;10.07;;;2.90;85.10;;;;;;4926190;29;20467;-49
2022/01/13 09:05:38;;;;;;;18.73;12.27;;;2.90;85.00;;;;;;4923344;29;20471;-49
2022/01/13 09:08:07;;;;;;;18.73;11.50;;;2.90;85.10;;;;;;4922670;29;20465;-48
2022/01/13 09:10:35;;;;;;;15.63;11.33;;;3.00;84.90;;;;;;4925512;29;20472;-48
2022/01/13 09:13:02;;;;;;;15.70;9.67;;;3.00;85.00;;;;;;4925437;29;20468;-48
2022/01/13 09:15:35;;;;;;;17.13;10.83;;;3.00;84.90;;;;;;4910272;29;20467;-48
2022/01/13 09:18:09;;;;;;;17.00;11.30;;;3.00;85.10;;;;;;4921161;29;20503;-48
2022/01/13 09:20:40;;;;;;;15.27;10.00;;;3.00;85.00;;;;;;4923963;29;20975;-48
2022/01/13 09:23:10;;;;;;;16.93;10.43;;;3.00;84.70;;;;;;4924358;29;20490;-48
2022/01/13 09:25:37;;;;;;;17.53;10.53;;;3.00;84.60;;;;;;4923827;29;20898;-48
2022/01/13 09:28:06;;;;;;;14.13;8.93;;;3.00;84.70;;;;;;4927197;29;20457;-48
2022/01/13 09:30:34;;;;;;;15.37;9.20;;;3.10;84.60;;;;;;4925165;29;20468;-48
2022/01/13 09:33:01;;;;;;;17.20;10.47;;;3.00;84.60;;;;;;4942005;28;20898;-48
2022/01/13 09:35:28;;;;;;;14.17;10.53;;;3.00;84.60;;;;;;4922523;29;20469;-49
2022/01/13 09:37:55;;;;;;;17.70;10.53;;;3.10;84.60;;;;;;4924144;29;20580;-48
2022/01/13 09:40:22;;;;;;;22.00;12.70;;;3.10;84.50;;;;;;4922144;29;20970;-48
2022/01/13 09:42:49;;;;;;;16.70;10.50;;;3.10;84.60;;;;;;4915004;29;20471;-49
2022/01/13 09:45:17;;;;;;;14.00;9.30;;;3.20;84.80;;;;;;4926369;29;21029;-48
2022/01/13 09:47:45;;;;;;;17.50;11.03;;;3.20;84.10;;;;;;4918174;29;20474;-48
2022/01/13 09:50:16;;;;;;;17.97;11.90;;;3.20;84.00;;;;;;4928332;29;20470;-48
2022/01/13 09:52:43;;;;;;;17.33;11.00;;;3.20;84.10;;;;;;4925663;29;20905;-49
2022/01/13 09:55:12;;;;;;;19.23;11.87;;;3.20;84.00;;;;;;4922405;29;20465;-48
2022/01/13 09:57:52;;;;;;;16.07;10.70;;;3.20;84.30;;;;;;4904414;29;20496;-48
2022/01/13 10:00:24;;;;;;;13.07;9.50;;;3.10;84.50;;;;;;4907119;29;20451;-48
2022/01/13 10:02:51;;;;;;;13.80;8.90;;;3.10;84.60;;;;;;4919631;29;20471;-48
2022/01/13 10:05:23;;;;;;;16.03;10.70;;;3.10;85.00;;;;;;4916566;29;20935;-48
2022/01/13 10:07:52;;;;;;;17.70;10.80;;;3.10;84.90;;;;;;4922533;29;20465;-48
2022/01/13 10:10:27;;;;;;;13.90;9.50;;;3.10;85.00;;;;;;4920893;29;20847;-48
2022/01/13 10:13:04;;;;;;;16.77;9.47;;;3.10;84.90;;;;;;4923257;29;21045;-48
2022/01/13 10:18:40;;;;;;;18.07;9.90;;;3.20;84.80;;;;;;4920831;29;20511;-48
2022/01/13 10:21:14;;;;;;;16.93;11.03;;;3.20;84.80;;;;;;4909083;29;20547;-49
2022/01/13 10:24:09;;;;;;;20.07;11.60;;;3.20;84.70;;;;;;4922867;29;21899;-48
2022/01/13 10:26:38;;;;;;;19.07;10.57;;;3.30;84.80;;;;;;4920371;29;20516;-48
2022/01/13 10:29:07;;;;;;;20.53;10.93;;;3.30;84.80;;;;;;4921967;29;20456;-48
2022/01/13 10:31:51;;;;;;;19.93;11.33;;;3.20;84.90;;;;;;4902554;29;20464;-48
2022/01/13 10:34:28;;;;;;;16.23;9.80;;;3.30;85.00;;;;;;4920854;29;20460;-49
2022/01/13 10:37:01;;;;;;;22.43;12.60;;;3.30;85.10;;;;;;4920988;29;20492;-48
2022/01/13 10:39:52;;;;;;;16.47;11.23;;;3.40;84.60;;;;;;4923036;29;20491;-48
2022/01/13 10:45:09;;;;;;;23.60;11.70;;;3.40;84.60;;;;;;4924967;29;20460;-48
2022/01/13 10:47:37;;;;;;;18.07;10.53;;;3.40;84.30;;;;;;4921363;29;20470;-48
2022/01/13 10:50:08;;;;;;;16.10;10.67;;;3.40;84.00;;;;;;4920096;29;20979;-48
2022/01/13 10:52:35;;;;;;;20.73;11.03;;;3.40;84.20;;;;;;4924111;29;20470;-48
2022/01/13 10:55:15;;;;;;;17.67;11.00;;;3.40;84.40;;;;;;4925911;29;20479;-48
2022/01/13 10:58:06;;;;;;;21.60;11.57;;;3.40;84.40;;;;;;4925992;29;20487;-49
2022/01/13 11:00:35;;;;;;;19.67;11.90;;;3.40;84.50;;;;;;4927600;29;20463;-48
2022/01/13 11:03:08;;;;;;;20.70;11.97;;;3.40;84.40;;;;;;4923798;29;25779;-48
2022/01/13 11:06:05;;;;;;;18.27;10.37;;;3.50;83.90;;;;;;4913743;29;20468;-48
2022/01/13 11:08:42;;;;;;;21.23;11.57;;;3.50;83.30;;;;;;4914076;29;20471;-47
2022/01/13 11:11:25;;;;;;;21.70;13.00;;;3.40;83.80;;;;;;4925736;29;20463;-47
2022/01/13 11:14:26;;;;;;;15.37;11.03;;;3.40;84.00;;;;;;4923936;29;20460;-48
2022/01/13 11:16:53;;;;;;;17.20;10.50;;;3.40;83.90;;;;;;4924790;29;20476;-48
2022/01/13 11:19:20;;;;;;;21.40;12.50;;;3.40;84.10;;;;;;4925322;29;20496;-48
2022/01/13 11:21:48;;;;;;;21.23;12.03;;;3.40;84.10;;;;;;4922799;29;20966;-48
2022/01/13 11:24:17;;;;;;;17.63;10.37;;;3.50;84.20;;;;;;4922091;29;20488;-48
2022/01/13 11:26:48;;;;;;;21.20;12.00;;;3.50;84.00;;;;;;4924522;29;20448;-48
2022/01/13 11:29:17;;;;;;;17.47;11.97;;;3.50;83.90;;;;;;4922455;29;20467;-48
2022/01/13 11:31:44;;;;;;;21.93;11.13;;;3.50;83.60;;;;;;4925910;29;20979;-49
2022/01/13 11:34:12;;;;;;;14.10;9.57;;;3.50;83.50;;;;;;4921812;29;20472;-48
2022/01/13 11:36:38;;;;;;;16.50;11.23;;;3.50;83.70;;;;;;4924313;29;20466;-48
2022/01/13 11:39:06;;;;;;;18.63;11.20;;;3.50;83.60;;;;;;4920612;29;20492;-48
2022/01/13 11:41:33;;;;;;;17.53;12.03;;;3.50;83.10;;;;;;4922458;29;20539;-49
2022/01/13 11:44:12;;;;;;;19.77;11.03;;;3.60;83.50;;;;;;4922095;29;20453;-48
2022/01/13 11:46:49;;;;;;;18.67;11.80;;;3.60;83.20;;;;;;4923381;29;20804;-48
2022/01/13 11:49:24;;;;;;;19.73;12.20;;;3.60;82.70;;;;;;4919324;29;20468;-48
2022/01/13 11:52:00;;;;;;;17.73;10.60;;;3.60;82.90;;;;;;4928413;29;20808;-48
2022/01/13 11:54:36;;;;;;;18.03;11.63;;;3.50;83.40;;;;;;4913625;29;20907;-49
2022/01/13 11:57:27;;;;;;;19.10;11.67;;;3.60;83.60;;;;;;4922796;29;20470;-48
2022/01/13 12:00:00;;;;;;;16.53;12.47;;;3.60;83.40;;;;;;4908264;29;20492;-48
2022/01/13 12:02:32;;;;;;;21.10;12.10;;;3.60;83.40;;;;;;4924358;29;20903;-49
2022/01/13 12:05:17;;;;;;;22.17;12.73;;;3.70;83.40;;;;;;4914578;29;20448;-49
2022/01/13 12:07:46;;;;;;;19.83;12.80;;;3.70;83.40;;;;;;4904407;29;20457;-49
2022/01/13 12:10:24;;;;;;;20.20;11.97;;;3.70;82.70;;;;;;4924419;29;20471;-48
2022/01/13 12:12:52;;;;;;;19.53;13.20;;;3.70;82.60;;;;;;4923287;29;20460;-48
2022/01/13 12:15:22;;;;;;;21.30;11.93;;;3.70;83.00;;;;;;4923214;29;20474;-48
2022/01/13 12:18:08;;;;;;;23.17;12.30;;;3.70;83.00;;;;;;4920501;29;20971;-48
2022/01/13 12:20:52;;;;;;;17.13;11.30;;;3.80;83.00;;;;;;4922357;29;20461;-48
2022/01/13 12:23:37;;;;;;;19.37;12.40;;;3.80;83.00;;;;;;4922121;29;21472;-48
2022/01/13 12:26:42;;;;;;;17.07;10.37;;;3.70;83.10;;;;;;4923792;29;20455;-48
2022/01/13 12:29:11;;;;;;;18.50;10.30;;;3.80;82.80;;;;;;4893567;29;20458;-49
2022/01/13 12:31:49;;;;;;;20.80;12.30;;;3.80;82.80;;;;;;4922816;29;20499;-49
2022/01/13 12:34:43;;;;;;;21.17;12.03;;;3.80;83.00;;;;;;4921914;29;20456;-49
2022/01/13 12:37:12;;;;;;;23.73;13.57;;;3.80;83.40;;;;;;4923516;29;20543;-48
2022/01/13 12:39:45;;;;;;;22.03;13.80;;;3.70;83.60;;;;;;4923780;29;20488;-48
2022/01/13 12:42:19;;;;;;;23.80;13.50;;;3.80;83.60;;;;;;4922745;29;20454;-49
2022/01/13 12:47:34;;;;;;;20.60;13.00;;;3.90;82.70;;;;;;4925133;29;20452;-49
2022/01/13 12:50:12;;;;;;;24.00;12.17;;;3.90;82.40;;;;;;4925656;29;20459;-48
2022/01/13 12:52:39;;;;;;;20.10;12.60;;;4.00;82.20;;;;;;4919517;29;20468;-48
2022/01/13 12:55:06;;;;;;;21.23;12.43;;;3.90;82.30;;;;;;4921853;29;20456;-48
2022/01/13 12:57:32;;;;;;;19.37;12.83;;;4.00;81.50;;;;;;4918510;29;20476;-48
2022/01/13 13:00:02;;;;;;;18.90;12.57;;;4.00;81.40;;;;;;4919842;29;21247;-48
2022/01/13 13:02:33;;;;;;;21.03;12.90;;;3.90;81.20;;;;;;4920405;29;20794;-47
2022/01/13 13:05:02;;;;;;;20.80;14.00;;;3.80;81.70;;;;;;4924368;29;20511;-49
2022/01/13 13:07:28;;;;;;;21.53;14.37;;;3.80;82.60;;;;;;4922137;29;20464;-48
2022/01/13 13:10:06;;;;;;;25.13;14.70;;;3.80;82.70;;;;;;4906658;29;21103;-48
2022/01/13 13:12:35;;;;;;;24.77;14.70;;;3.80;82.60;;;;;;4921618;29;20466;-48
2022/01/13 13:18:19;;;;;;;25.93;14.13;;;3.80;83.10;;;;;;4922587;29;20514;-48
2022/01/13 13:20:48;;;;;;;24.10;13.20;;;3.80;83.20;;;;;;4909513;29;20889;-48
2022/01/13 13:23:18;;;;;;;22.10;12.90;;;3.80;83.30;;;;;;4905340;29;20494;-47
2022/01/13 13:25:52;;;;;;;25.43;13.83;;;3.90;82.00;;;;;;4906967;29;20981;-48